sensor_id;sensor_type;location;lat;lon;timestamp;P1;durP1;ratioP1;P2;durP2;ratioP2
68989;SDS011;56046;47.270;11.368;2022-10-17T00:00:39;10.90;;;4.70;;
68989;SDS011;56046;47.270;11.368;2022-10-17T00:03:05;8.63;;;4.72;;
68989;SDS011;56046;47.270;11.368;2022-10-17T00:05:31;9.30;;;4.68;;
68989;SDS011;56046;47.270;11.368;2022-10-17T00:07:56;14.63;;;4.90;;
68989;SDS011;56046;47.270;11.368;2022-10-17T00:10:21;10.60;;;4.60;;
68989;SDS011;56046;47.270;11.368;2022-10-17T00:12:49;8.85;;;4.32;;
68989;SDS011;56046;47.270;11.368;2022-10-17T00:15:16;10.65;;;4.20;;
68989;SDS011;56046;47.270;11.368;2022-10-17T00:17:43;10.25;;;4.10;;
68989;SDS011;56046;47.270;11.368;2022-10-17T00:20:08;8.93;;;3.47;;
68989;SDS011;56046;47.270;11.368;2022-10-17T00:22:34;8.27;;;4.05;;
68989;SDS011;56046;47.270;11.368;2022-10-17T00:25:00;8.63;;;4.20;;
68989;SDS011;56046;47.270;11.368;2022-10-17T00:27:25;8.27;;;3.83;;
68989;SDS011;56046;47.270;11.368;2022-10-17T00:29:51;8.98;;;4.15;;
68989;SDS011;56046;47.270;11.368;2022-10-17T00:32:17;7.93;;;4.07;;
68989;SDS011;56046;47.270;11.368;2022-10-17T00:34:43;10.43;;;4.20;;
68989;SDS011;56046;47.270;11.368;2022-10-17T00:37:09;8.77;;;3.77;;
68989;SDS011;56046;47.270;11.368;2022-10-17T00:39:34;8.20;;;3.93;;
68989;SDS011;56046;47.270;11.368;2022-10-17T00:42:00;9.97;;;4.20;;
68989;SDS011;56046;47.270;11.368;2022-10-17T00:47:03;8.73;;;4.25;;
68989;SDS011;56046;47.270;11.368;2022-10-17T00:49:33;13.30;;;4.43;;
68989;SDS011;56046;47.270;11.368;2022-10-17T00:52:02;10.60;;;4.10;;
68989;SDS011;56046;47.270;11.368;2022-10-17T00:54:31;12.45;;;3.95;;
68989;SDS011;56046;47.270;11.368;2022-10-17T00:56:58;9.50;;;4.03;;
68989;SDS011;56046;47.270;11.368;2022-10-17T00:59:24;8.38;;;3.80;;
68989;SDS011;56046;47.270;11.368;2022-10-17T01:02:02;7.30;;;3.50;;
68989;SDS011;56046;47.270;11.368;2022-10-17T01:04:29;9.23;;;3.92;;
68989;SDS011;56046;47.270;11.368;2022-10-17T01:06:55;12.83;;;4.40;;
68989;SDS011;56046;47.270;11.368;2022-10-17T01:09:20;7.75;;;4.10;;
68989;SDS011;56046;47.270;11.368;2022-10-17T01:14:41;9.03;;;4.00;;
68989;SDS011;56046;47.270;11.368;2022-10-17T01:20:06;7.72;;;4.03;;
68989;SDS011;56046;47.270;11.368;2022-10-17T01:37:12;8.50;;;4.03;;
68989;SDS011;56046;47.270;11.368;2022-10-17T01:39:49;6.32;;;3.45;;
68989;SDS011;56046;47.270;11.368;2022-10-17T01:42:26;8.27;;;4.10;;
68989;SDS011;56046;47.270;11.368;2022-10-17T01:45:02;9.73;;;4.20;;
68989;SDS011;56046;47.270;11.368;2022-10-17T01:47:31;6.07;;;3.33;;
68989;SDS011;56046;47.270;11.368;2022-10-17T01:50:03;7.25;;;3.85;;
68989;SDS011;56046;47.270;11.368;2022-10-17T01:52:36;9.30;;;3.78;;
68989;SDS011;56046;47.270;11.368;2022-10-17T01:55:08;7.73;;;3.90;;
68989;SDS011;56046;47.270;11.368;2022-10-17T01:57:43;7.65;;;3.55;;
68989;SDS011;56046;47.270;11.368;2022-10-17T02:00:14;8.30;;;3.53;;
68989;SDS011;56046;47.270;11.368;2022-10-17T02:02:44;6.80;;;3.60;;
68989;SDS011;56046;47.270;11.368;2022-10-17T02:05:12;7.20;;;3.30;;
68989;SDS011;56046;47.270;11.368;2022-10-17T02:07:39;8.40;;;3.90;;
68989;SDS011;56046;47.270;11.368;2022-10-17T02:10:07;7.60;;;3.35;;
68989;SDS011;56046;47.270;11.368;2022-10-17T02:23:23;18.02;;;4.38;;
68989;SDS011;56046;47.270;11.368;2022-10-17T02:31:22;8.93;;;3.60;;
68989;SDS011;56046;47.270;11.368;2022-10-17T02:33:55;8.00;;;3.33;;
68989;SDS011;56046;47.270;11.368;2022-10-17T02:36:24;7.47;;;3.10;;
68989;SDS011;56046;47.270;11.368;2022-10-17T02:38:56;10.57;;;3.70;;
68989;SDS011;56046;47.270;11.368;2022-10-17T02:41:23;8.87;;;3.60;;
68989;SDS011;56046;47.270;11.368;2022-10-17T02:43:49;7.15;;;3.50;;
68989;SDS011;56046;47.270;11.368;2022-10-17T02:46:17;8.65;;;3.58;;
68989;SDS011;56046;47.270;11.368;2022-10-17T02:48:46;10.30;;;3.80;;
68989;SDS011;56046;47.270;11.368;2022-10-17T02:56:50;8.07;;;3.40;;
68989;SDS011;56046;47.270;11.368;2022-10-17T02:59:37;8.52;;;3.20;;
68989;SDS011;56046;47.270;11.368;2022-10-17T03:02:05;8.40;;;3.80;;
68989;SDS011;56046;47.270;11.368;2022-10-17T03:04:31;7.30;;;3.73;;
68989;SDS011;56046;47.270;11.368;2022-10-17T03:06:57;7.15;;;3.35;;
68989;SDS011;56046;47.270;11.368;2022-10-17T03:09:23;8.37;;;4.10;;
68989;SDS011;56046;47.270;11.368;2022-10-17T03:11:48;10.73;;;3.90;;
68989;SDS011;56046;47.270;11.368;2022-10-17T03:14:15;8.73;;;4.10;;
68989;SDS011;56046;47.270;11.368;2022-10-17T03:16:40;8.82;;;3.42;;
68989;SDS011;56046;47.270;11.368;2022-10-17T03:19:06;7.27;;;3.90;;
68989;SDS011;56046;47.270;11.368;2022-10-17T03:21:32;8.95;;;3.55;;
68989;SDS011;56046;47.270;11.368;2022-10-17T03:23:58;10.25;;;3.85;;
68989;SDS011;56046;47.270;11.368;2022-10-17T03:26:23;8.47;;;3.97;;
68989;SDS011;56046;47.270;11.368;2022-10-17T03:28:49;9.17;;;3.57;;
68989;SDS011;56046;47.270;11.368;2022-10-17T03:31:15;8.57;;;4.13;;
68989;SDS011;56046;47.270;11.368;2022-10-17T03:33:41;7.93;;;3.83;;
68989;SDS011;56046;47.270;11.368;2022-10-17T03:36:07;9.85;;;4.18;;
68989;SDS011;56046;47.270;11.368;2022-10-17T03:38:34;8.25;;;4.18;;
68989;SDS011;56046;47.270;11.368;2022-10-17T03:41:00;7.50;;;3.40;;
68989;SDS011;56046;47.270;11.368;2022-10-17T03:43:26;7.10;;;3.88;;
68989;SDS011;56046;47.270;11.368;2022-10-17T03:45:51;8.73;;;3.60;;
68989;SDS011;56046;47.270;11.368;2022-10-17T03:48:17;8.37;;;3.60;;
68989;SDS011;56046;47.270;11.368;2022-10-17T03:50:42;8.23;;;3.40;;
68989;SDS011;56046;47.270;11.368;2022-10-17T03:53:07;9.38;;;4.22;;
68989;SDS011;56046;47.270;11.368;2022-10-17T03:55:33;8.87;;;3.87;;
68989;SDS011;56046;47.270;11.368;2022-10-17T03:57:58;8.40;;;3.63;;
68989;SDS011;56046;47.270;11.368;2022-10-17T04:00:24;8.97;;;4.50;;
68989;SDS011;56046;47.270;11.368;2022-10-17T04:02:49;8.13;;;3.63;;
68989;SDS011;56046;47.270;11.368;2022-10-17T04:05:15;9.30;;;3.80;;
68989;SDS011;56046;47.270;11.368;2022-10-17T04:07:40;7.97;;;3.83;;
68989;SDS011;56046;47.270;11.368;2022-10-17T04:10:06;8.13;;;3.63;;
68989;SDS011;56046;47.270;11.368;2022-10-17T04:12:31;9.68;;;3.97;;
68989;SDS011;56046;47.270;11.368;2022-10-17T04:14:57;6.80;;;3.50;;
68989;SDS011;56046;47.270;11.368;2022-10-17T04:17:22;9.07;;;4.20;;
68989;SDS011;56046;47.270;11.368;2022-10-17T04:19:48;9.77;;;3.85;;
68989;SDS011;56046;47.270;11.368;2022-10-17T04:22:13;8.23;;;3.93;;
68989;SDS011;56046;47.270;11.368;2022-10-17T04:24:39;7.80;;;3.80;;
68989;SDS011;56046;47.270;11.368;2022-10-17T04:27:04;10.15;;;4.00;;
68989;SDS011;56046;47.270;11.368;2022-10-17T04:29:30;9.80;;;3.70;;
68989;SDS011;56046;47.270;11.368;2022-10-17T04:31:56;12.25;;;3.97;;
68989;SDS011;56046;47.270;11.368;2022-10-17T04:34:21;8.40;;;3.53;;
68989;SDS011;56046;47.270;11.368;2022-10-17T04:36:47;8.00;;;3.80;;
68989;SDS011;56046;47.270;11.368;2022-10-17T04:39:12;7.77;;;3.70;;
68989;SDS011;56046;47.270;11.368;2022-10-17T04:41:38;10.35;;;3.83;;
68989;SDS011;56046;47.270;11.368;2022-10-17T04:44:03;10.47;;;4.03;;
68989;SDS011;56046;47.270;11.368;2022-10-17T04:46:29;8.15;;;4.22;;
68989;SDS011;56046;47.270;11.368;2022-10-17T04:48:55;9.90;;;3.90;;
68989;SDS011;56046;47.270;11.368;2022-10-17T04:51:20;10.23;;;3.63;;
68989;SDS011;56046;47.270;11.368;2022-10-17T04:53:45;8.80;;;3.90;;
68989;SDS011;56046;47.270;11.368;2022-10-17T04:56:12;7.30;;;4.00;;
68989;SDS011;56046;47.270;11.368;2022-10-17T04:58:41;8.57;;;4.80;;
68989;SDS011;56046;47.270;11.368;2022-10-17T05:01:08;8.68;;;4.38;;
68989;SDS011;56046;47.270;11.368;2022-10-17T05:03:39;8.45;;;3.33;;
68989;SDS011;56046;47.270;11.368;2022-10-17T05:06:05;8.87;;;3.97;;
68989;SDS011;56046;47.270;11.368;2022-10-17T05:08:32;13.13;;;4.10;;
68989;SDS011;56046;47.270;11.368;2022-10-17T05:10:58;8.10;;;4.20;;
68989;SDS011;56046;47.270;11.368;2022-10-17T05:13:24;9.93;;;4.60;;
68989;SDS011;56046;47.270;11.368;2022-10-17T05:15:49;10.18;;;4.43;;
68989;SDS011;56046;47.270;11.368;2022-10-17T05:18:15;11.03;;;4.23;;
68989;SDS011;56046;47.270;11.368;2022-10-17T05:20:40;8.10;;;4.10;;
68989;SDS011;56046;47.270;11.368;2022-10-17T05:23:06;9.13;;;4.23;;
68989;SDS011;56046;47.270;11.368;2022-10-17T05:25:31;9.68;;;4.15;;
68989;SDS011;56046;47.270;11.368;2022-10-17T05:27:57;10.87;;;4.33;;
68989;SDS011;56046;47.270;11.368;2022-10-17T05:30:22;9.93;;;4.00;;
68989;SDS011;56046;47.270;11.368;2022-10-17T05:32:50;8.90;;;3.97;;
68989;SDS011;56046;47.270;11.368;2022-10-17T05:35:17;11.25;;;4.10;;
68989;SDS011;56046;47.270;11.368;2022-10-17T05:37:43;9.07;;;4.50;;
68989;SDS011;56046;47.270;11.368;2022-10-17T05:40:08;8.93;;;3.60;;
68989;SDS011;56046;47.270;11.368;2022-10-17T05:42:34;8.90;;;4.40;;
68989;SDS011;56046;47.270;11.368;2022-10-17T05:44:59;8.17;;;3.87;;
68989;SDS011;56046;47.270;11.368;2022-10-17T05:47:25;9.52;;;4.25;;
68989;SDS011;56046;47.270;11.368;2022-10-17T05:49:50;9.13;;;3.70;;
68989;SDS011;56046;47.270;11.368;2022-10-17T05:52:16;10.00;;;3.83;;
68989;SDS011;56046;47.270;11.368;2022-10-17T05:54:41;8.20;;;3.53;;
68989;SDS011;56046;47.270;11.368;2022-10-17T05:57:07;9.53;;;3.80;;
68989;SDS011;56046;47.270;11.368;2022-10-17T05:59:32;6.90;;;3.20;;
68989;SDS011;56046;47.270;11.368;2022-10-17T06:01:57;7.63;;;3.93;;
68989;SDS011;56046;47.270;11.368;2022-10-17T06:04:23;7.33;;;3.67;;
68989;SDS011;56046;47.270;11.368;2022-10-17T06:06:48;6.60;;;3.83;;
68989;SDS011;56046;47.270;11.368;2022-10-17T06:09:14;7.88;;;3.80;;
68989;SDS011;56046;47.270;11.368;2022-10-17T06:11:39;8.37;;;4.17;;
68989;SDS011;56046;47.270;11.368;2022-10-17T06:14:05;10.60;;;3.90;;
68989;SDS011;56046;47.270;11.368;2022-10-17T06:16:30;7.70;;;4.03;;
68989;SDS011;56046;47.270;11.368;2022-10-17T06:18:56;8.03;;;4.07;;
68989;SDS011;56046;47.270;11.368;2022-10-17T06:21:23;7.57;;;3.93;;
68989;SDS011;56046;47.270;11.368;2022-10-17T06:23:50;8.63;;;4.00;;
68989;SDS011;56046;47.270;11.368;2022-10-17T06:26:16;10.55;;;4.55;;
68989;SDS011;56046;47.270;11.368;2022-10-17T06:28:41;8.37;;;4.07;;
68989;SDS011;56046;47.270;11.368;2022-10-17T06:31:08;8.27;;;3.80;;
68989;SDS011;56046;47.270;11.368;2022-10-17T06:33:36;8.13;;;4.50;;
68989;SDS011;56046;47.270;11.368;2022-10-17T06:36:03;9.38;;;4.60;;
68989;SDS011;56046;47.270;11.368;2022-10-17T06:38:30;8.15;;;4.30;;
68989;SDS011;56046;47.270;11.368;2022-10-17T06:41:02;9.07;;;4.23;;
68989;SDS011;56046;47.270;11.368;2022-10-17T06:43:32;9.95;;;4.47;;
68989;SDS011;56046;47.270;11.368;2022-10-17T06:45:58;8.23;;;4.00;;
68989;SDS011;56046;47.270;11.368;2022-10-17T06:48:23;10.93;;;5.05;;
68989;SDS011;56046;47.270;11.368;2022-10-17T06:50:48;9.17;;;4.00;;
68989;SDS011;56046;47.270;11.368;2022-10-17T06:53:14;11.33;;;4.30;;
68989;SDS011;56046;47.270;11.368;2022-10-17T06:55:39;11.23;;;4.63;;
68989;SDS011;56046;47.270;11.368;2022-10-17T06:58:05;8.50;;;4.70;;
68989;SDS011;56046;47.270;11.368;2022-10-17T07:00:30;10.53;;;4.53;;
68989;SDS011;56046;47.270;11.368;2022-10-17T07:02:56;7.30;;;4.20;;
68989;SDS011;56046;47.270;11.368;2022-10-17T07:05:21;9.27;;;4.20;;
68989;SDS011;56046;47.270;11.368;2022-10-17T07:07:46;10.37;;;4.40;;
68989;SDS011;56046;47.270;11.368;2022-10-17T07:10:12;7.68;;;4.30;;
68989;SDS011;56046;47.270;11.368;2022-10-17T07:12:37;9.07;;;3.80;;
68989;SDS011;56046;47.270;11.368;2022-10-17T07:15:03;12.57;;;4.60;;
68989;SDS011;56046;47.270;11.368;2022-10-17T07:17:29;8.10;;;4.55;;
68989;SDS011;56046;47.270;11.368;2022-10-17T07:19:55;9.52;;;4.80;;
68989;SDS011;56046;47.270;11.368;2022-10-17T07:22:20;9.40;;;4.43;;
68989;SDS011;56046;47.270;11.368;2022-10-17T07:24:46;9.93;;;4.40;;
68989;SDS011;56046;47.270;11.368;2022-10-17T07:27:12;8.33;;;4.63;;
68989;SDS011;56046;47.270;11.368;2022-10-17T07:29:38;11.68;;;4.57;;
68989;SDS011;56046;47.270;11.368;2022-10-17T07:32:03;8.33;;;4.13;;
68989;SDS011;56046;47.270;11.368;2022-10-17T07:34:32;8.73;;;4.00;;
68989;SDS011;56046;47.270;11.368;2022-10-17T07:36:58;9.95;;;5.07;;
68989;SDS011;56046;47.270;11.368;2022-10-17T07:39:24;8.97;;;4.70;;
68989;SDS011;56046;47.270;11.368;2022-10-17T07:41:49;10.25;;;4.90;;
68989;SDS011;56046;47.270;11.368;2022-10-17T07:44:15;8.30;;;4.03;;
68989;SDS011;56046;47.270;11.368;2022-10-17T07:46:40;10.70;;;4.20;;
68989;SDS011;56046;47.270;11.368;2022-10-17T07:49:06;7.53;;;3.70;;
68989;SDS011;56046;47.270;11.368;2022-10-17T07:51:31;9.90;;;4.15;;
68989;SDS011;56046;47.270;11.368;2022-10-17T07:53:57;8.10;;;4.27;;
68989;SDS011;56046;47.270;11.368;2022-10-17T07:56:22;8.95;;;3.80;;
68989;SDS011;56046;47.270;11.368;2022-10-17T07:58:48;7.77;;;3.90;;
68989;SDS011;56046;47.270;11.368;2022-10-17T08:01:14;10.93;;;4.40;;
68989;SDS011;56046;47.270;11.368;2022-10-17T08:03:40;9.33;;;4.20;;
68989;SDS011;56046;47.270;11.368;2022-10-17T08:06:07;9.50;;;4.13;;
68989;SDS011;56046;47.270;11.368;2022-10-17T08:08:32;9.63;;;4.37;;
68989;SDS011;56046;47.270;11.368;2022-10-17T08:11:05;6.80;;;3.85;;
68989;SDS011;56046;47.270;11.368;2022-10-17T08:13:33;8.32;;;4.30;;
68989;SDS011;56046;47.270;11.368;2022-10-17T08:15:59;6.77;;;4.00;;
68989;SDS011;56046;47.270;11.368;2022-10-17T08:18:29;7.93;;;3.58;;
68989;SDS011;56046;47.270;11.368;2022-10-17T08:20:57;6.67;;;3.57;;
68989;SDS011;56046;47.270;11.368;2022-10-17T08:23:23;6.72;;;3.80;;
68989;SDS011;56046;47.270;11.368;2022-10-17T08:25:49;7.83;;;3.20;;
68989;SDS011;56046;47.270;11.368;2022-10-17T08:28:14;7.33;;;3.87;;
68989;SDS011;56046;47.270;11.368;2022-10-17T08:30:40;6.50;;;3.40;;
68989;SDS011;56046;47.270;11.368;2022-10-17T08:33:05;6.87;;;3.50;;
68989;SDS011;56046;47.270;11.368;2022-10-17T08:35:31;7.00;;;3.77;;
68989;SDS011;56046;47.270;11.368;2022-10-17T08:37:57;6.60;;;3.77;;
68989;SDS011;56046;47.270;11.368;2022-10-17T08:40:26;6.68;;;3.03;;
68989;SDS011;56046;47.270;11.368;2022-10-17T08:45:52;8.20;;;3.33;;
68989;SDS011;56046;47.270;11.368;2022-10-17T08:48:22;7.35;;;3.65;;
68989;SDS011;56046;47.270;11.368;2022-10-17T08:50:57;6.60;;;3.10;;
68989;SDS011;56046;47.270;11.368;2022-10-17T08:53:32;6.60;;;3.15;;
68989;SDS011;56046;47.270;11.368;2022-10-17T08:56:04;6.93;;;3.40;;
68989;SDS011;56046;47.270;11.368;2022-10-17T08:58:37;10.13;;;3.80;;
68989;SDS011;56046;47.270;11.368;2022-10-17T09:06:35;6.40;;;3.63;;
68989;SDS011;56046;47.270;11.368;2022-10-17T09:17:29;8.55;;;3.53;;
68989;SDS011;56046;47.270;11.368;2022-10-17T09:22:34;7.18;;;3.53;;
68989;SDS011;56046;47.270;11.368;2022-10-17T09:25:09;7.07;;;3.40;;
68989;SDS011;56046;47.270;11.368;2022-10-17T09:30:43;6.05;;;3.03;;
68989;SDS011;56046;47.270;11.368;2022-10-17T09:33:26;6.85;;;3.75;;
68989;SDS011;56046;47.270;11.368;2022-10-17T09:35:58;5.05;;;3.15;;
68989;SDS011;56046;47.270;11.368;2022-10-17T09:38:25;6.27;;;3.20;;
68989;SDS011;56046;47.270;11.368;2022-10-17T09:40:58;5.60;;;3.40;;
68989;SDS011;56046;47.270;11.368;2022-10-17T09:43:25;8.43;;;3.58;;
68989;SDS011;56046;47.270;11.368;2022-10-17T09:48:31;6.03;;;3.13;;
68989;SDS011;56046;47.270;11.368;2022-10-17T09:50:58;6.82;;;2.97;;
68989;SDS011;56046;47.270;11.368;2022-10-17T09:53:25;6.80;;;3.50;;
68989;SDS011;56046;47.270;11.368;2022-10-17T09:55:57;9.02;;;3.30;;
68989;SDS011;56046;47.270;11.368;2022-10-17T09:58:47;5.80;;;3.30;;
68989;SDS011;56046;47.270;11.368;2022-10-17T10:01:27;8.48;;;3.40;;
68989;SDS011;56046;47.270;11.368;2022-10-17T10:04:11;7.10;;;3.45;;
68989;SDS011;56046;47.270;11.368;2022-10-17T10:06:59;5.93;;;3.57;;
68989;SDS011;56046;47.270;11.368;2022-10-17T10:09:30;7.50;;;3.28;;
68989;SDS011;56046;47.270;11.368;2022-10-17T10:11:58;5.63;;;3.17;;
68989;SDS011;56046;47.270;11.368;2022-10-17T10:14:30;6.97;;;3.22;;
68989;SDS011;56046;47.270;11.368;2022-10-17T10:16:58;7.03;;;3.47;;
68989;SDS011;56046;47.270;11.368;2022-10-17T10:21:58;5.50;;;3.20;;
68989;SDS011;56046;47.270;11.368;2022-10-17T10:24:25;8.40;;;3.42;;
68989;SDS011;56046;47.270;11.368;2022-10-17T10:26:51;6.07;;;3.30;;
68989;SDS011;56046;47.270;11.368;2022-10-17T10:31:48;6.07;;;3.47;;
68989;SDS011;56046;47.270;11.368;2022-10-17T10:34:27;5.65;;;2.75;;
68989;SDS011;56046;47.270;11.368;2022-10-17T10:39:45;5.78;;;3.15;;
68989;SDS011;56046;47.270;11.368;2022-10-17T10:42:17;6.05;;;3.45;;
68989;SDS011;56046;47.270;11.368;2022-10-17T10:44:57;6.97;;;3.60;;
68989;SDS011;56046;47.270;11.368;2022-10-17T10:47:29;6.40;;;3.08;;
68989;SDS011;56046;47.270;11.368;2022-10-17T10:50:16;6.00;;;2.50;;
68989;SDS011;56046;47.270;11.368;2022-10-17T10:55:55;5.88;;;3.20;;
68989;SDS011;56046;47.270;11.368;2022-10-17T11:01:06;8.38;;;3.25;;
68989;SDS011;56046;47.270;11.368;2022-10-17T11:03:41;5.93;;;3.47;;
68989;SDS011;56046;47.270;11.368;2022-10-17T11:06:36;4.80;;;2.72;;
68989;SDS011;56046;47.270;11.368;2022-10-17T11:11:53;6.40;;;3.00;;
68989;SDS011;56046;47.270;11.368;2022-10-17T11:14:37;6.00;;;3.10;;
68989;SDS011;56046;47.270;11.368;2022-10-17T11:17:29;4.82;;;2.83;;
68989;SDS011;56046;47.270;11.368;2022-10-17T11:22:46;5.63;;;2.95;;
68989;SDS011;56046;47.270;11.368;2022-10-17T11:25:23;6.07;;;3.63;;
68989;SDS011;56046;47.270;11.368;2022-10-17T11:27:57;6.28;;;2.90;;
68989;SDS011;56046;47.270;11.368;2022-10-17T11:30:23;4.82;;;3.03;;
68989;SDS011;56046;47.270;11.368;2022-10-17T11:32:54;6.37;;;3.33;;
68989;SDS011;56046;47.270;11.368;2022-10-17T11:35:34;5.53;;;3.05;;
68989;SDS011;56046;47.270;11.368;2022-10-17T11:40:51;6.70;;;3.20;;
68989;SDS011;56046;47.270;11.368;2022-10-17T11:46:03;7.53;;;3.37;;
68989;SDS011;56046;47.270;11.368;2022-10-17T11:48:40;7.18;;;3.33;;
68989;SDS011;56046;47.270;11.368;2022-10-17T11:51:10;5.45;;;3.25;;
68989;SDS011;56046;47.270;11.368;2022-10-17T11:56:28;7.35;;;3.15;;
68989;SDS011;56046;47.270;11.368;2022-10-17T12:01:51;6.28;;;3.15;;
68989;SDS011;56046;47.270;11.368;2022-10-17T12:04:39;5.10;;;3.03;;
68989;SDS011;56046;47.270;11.368;2022-10-17T12:07:22;5.20;;;3.28;;
68989;SDS011;56046;47.270;11.368;2022-10-17T12:12:32;5.57;;;3.23;;
68989;SDS011;56046;47.270;11.368;2022-10-17T12:17:37;5.95;;;3.22;;
68989;SDS011;56046;47.270;11.368;2022-10-17T12:20:30;5.50;;;3.42;;
68989;SDS011;56046;47.270;11.368;2022-10-17T12:25:30;6.17;;;3.27;;
68989;SDS011;56046;47.270;11.368;2022-10-17T12:28:09;7.55;;;3.30;;
68989;SDS011;56046;47.270;11.368;2022-10-17T12:30:35;8.20;;;3.40;;
68989;SDS011;56046;47.270;11.368;2022-10-17T12:35:46;7.40;;;3.30;;
68989;SDS011;56046;47.270;11.368;2022-10-17T12:45:58;5.47;;;3.03;;
68989;SDS011;56046;47.270;11.368;2022-10-17T12:53:37;5.47;;;3.33;;
68989;SDS011;56046;47.270;11.368;2022-10-17T12:56:13;6.43;;;3.30;;
68989;SDS011;56046;47.270;11.368;2022-10-17T12:58:49;6.45;;;3.53;;
68989;SDS011;56046;47.270;11.368;2022-10-17T13:01:16;4.57;;;2.55;;
68989;SDS011;56046;47.270;11.368;2022-10-17T13:03:51;5.27;;;3.13;;
68989;SDS011;56046;47.270;11.368;2022-10-17T13:06:21;7.00;;;3.20;;
68989;SDS011;56046;47.270;11.368;2022-10-17T13:08:51;5.38;;;3.05;;
68989;SDS011;56046;47.270;11.368;2022-10-17T13:11:24;4.70;;;3.03;;
68989;SDS011;56046;47.270;11.368;2022-10-17T13:13:54;4.80;;;2.80;;
68989;SDS011;56046;47.270;11.368;2022-10-17T13:16:56;5.20;;;3.03;;
68989;SDS011;56046;47.270;11.368;2022-10-17T13:19:17;6.05;;;3.08;;
68989;SDS011;56046;47.270;11.368;2022-10-17T13:22:02;6.90;;;3.00;;
68989;SDS011;56046;47.270;11.368;2022-10-17T13:26:57;5.82;;;2.70;;
68989;SDS011;56046;47.270;11.368;2022-10-17T13:29:23;6.47;;;3.40;;
68989;SDS011;56046;47.270;11.368;2022-10-17T13:32:00;4.85;;;2.90;;
68989;SDS011;56046;47.270;11.368;2022-10-17T13:34:28;6.35;;;2.58;;
68989;SDS011;56046;47.270;11.368;2022-10-17T13:37:01;5.88;;;3.08;;
68989;SDS011;56046;47.270;11.368;2022-10-17T13:39:35;4.53;;;2.63;;
68989;SDS011;56046;47.270;11.368;2022-10-17T13:42:03;7.53;;;3.13;;
68989;SDS011;56046;47.270;11.368;2022-10-17T13:44:33;5.53;;;2.70;;
68989;SDS011;56046;47.270;11.368;2022-10-17T13:46:59;8.02;;;3.25;;
68989;SDS011;56046;47.270;11.368;2022-10-17T13:49:43;6.25;;;3.30;;
68989;SDS011;56046;47.270;11.368;2022-10-17T13:52:19;6.75;;;3.13;;
68989;SDS011;56046;47.270;11.368;2022-10-17T13:54:48;8.67;;;3.10;;
68989;SDS011;56046;47.270;11.368;2022-10-17T13:57:22;6.68;;;3.33;;
68989;SDS011;56046;47.270;11.368;2022-10-17T14:02:25;5.72;;;3.30;;
68989;SDS011;56046;47.270;11.368;2022-10-17T14:12:55;6.38;;;2.55;;
68989;SDS011;56046;47.270;11.368;2022-10-17T14:15:24;5.47;;;2.95;;
68989;SDS011;56046;47.270;11.368;2022-10-17T14:17:56;7.72;;;2.80;;
68989;SDS011;56046;47.270;11.368;2022-10-17T14:20:24;6.00;;;3.07;;
68989;SDS011;56046;47.270;11.368;2022-10-17T14:22:53;6.43;;;2.78;;
68989;SDS011;56046;47.270;11.368;2022-10-17T14:28:12;6.72;;;2.83;;
68989;SDS011;56046;47.270;11.368;2022-10-17T14:30:43;7.63;;;2.83;;
68989;SDS011;56046;47.270;11.368;2022-10-17T14:33:15;6.73;;;3.03;;
68989;SDS011;56046;47.270;11.368;2022-10-17T14:35:51;8.45;;;2.88;;
68989;SDS011;56046;47.270;11.368;2022-10-17T14:38:18;6.45;;;2.65;;
68989;SDS011;56046;47.270;11.368;2022-10-17T14:40:51;5.43;;;2.70;;
68989;SDS011;56046;47.270;11.368;2022-10-17T14:43:28;7.88;;;2.97;;
68989;SDS011;56046;47.270;11.368;2022-10-17T14:46:01;4.73;;;2.70;;
68989;SDS011;56046;47.270;11.368;2022-10-17T14:48:27;5.68;;;2.67;;
68989;SDS011;56046;47.270;11.368;2022-10-17T14:51:15;6.68;;;2.53;;
68989;SDS011;56046;47.270;11.368;2022-10-17T14:53:42;8.27;;;3.00;;
68989;SDS011;56046;47.270;11.368;2022-10-17T14:56:24;4.85;;;2.22;;
68989;SDS011;56046;47.270;11.368;2022-10-17T14:58:52;8.90;;;2.60;;
68989;SDS011;56046;47.270;11.368;2022-10-17T15:01:18;5.85;;;2.50;;
68989;SDS011;56046;47.270;11.368;2022-10-17T15:03:43;7.47;;;2.47;;
68989;SDS011;56046;47.270;11.368;2022-10-17T15:06:16;6.20;;;2.67;;
68989;SDS011;56046;47.270;11.368;2022-10-17T15:08:44;4.72;;;2.47;;
68989;SDS011;56046;47.270;11.368;2022-10-17T15:11:10;7.67;;;2.67;;
68989;SDS011;56046;47.270;11.368;2022-10-17T15:13:36;6.85;;;2.28;;
68989;SDS011;56046;47.270;11.368;2022-10-17T15:16:05;6.10;;;2.63;;
68989;SDS011;56046;47.270;11.368;2022-10-17T15:18:37;6.57;;;2.50;;
68989;SDS011;56046;47.270;11.368;2022-10-17T15:21:04;4.50;;;2.60;;
68989;SDS011;56046;47.270;11.368;2022-10-17T15:23:35;9.05;;;2.42;;
68989;SDS011;56046;47.270;11.368;2022-10-17T15:26:00;4.37;;;2.60;;
68989;SDS011;56046;47.270;11.368;2022-10-17T15:28:26;7.40;;;2.70;;
68989;SDS011;56046;47.270;11.368;2022-10-17T15:30:51;5.93;;;2.67;;
68989;SDS011;56046;47.270;11.368;2022-10-17T15:33:17;5.00;;;2.37;;
68989;SDS011;56046;47.270;11.368;2022-10-17T15:35:42;5.87;;;2.67;;
68989;SDS011;56046;47.270;11.368;2022-10-17T15:38:07;5.17;;;2.50;;
68989;SDS011;56046;47.270;11.368;2022-10-17T15:40:33;11.83;;;3.00;;
68989;SDS011;56046;47.270;11.368;2022-10-17T15:42:58;6.32;;;2.50;;
68989;SDS011;56046;47.270;11.368;2022-10-17T15:45:24;6.87;;;2.70;;
68989;SDS011;56046;47.270;11.368;2022-10-17T15:47:50;6.10;;;2.60;;
68989;SDS011;56046;47.270;11.368;2022-10-17T15:50:17;4.75;;;2.50;;
68989;SDS011;56046;47.270;11.368;2022-10-17T15:52:44;7.75;;;2.55;;
68989;SDS011;56046;47.270;11.368;2022-10-17T15:55:11;6.90;;;2.53;;
68989;SDS011;56046;47.270;11.368;2022-10-17T15:57:39;4.47;;;2.20;;
68989;SDS011;56046;47.270;11.368;2022-10-17T16:00:07;5.70;;;2.20;;
68989;SDS011;56046;47.270;11.368;2022-10-17T16:02:40;6.90;;;2.15;;
68989;SDS011;56046;47.270;11.368;2022-10-17T16:05:18;4.50;;;2.30;;
68989;SDS011;56046;47.270;11.368;2022-10-17T16:07:47;6.80;;;2.38;;
68989;SDS011;56046;47.270;11.368;2022-10-17T16:10:13;4.97;;;2.70;;
68989;SDS011;56046;47.270;11.368;2022-10-17T16:12:40;3.95;;;1.95;;
68989;SDS011;56046;47.270;11.368;2022-10-17T16:15:16;6.80;;;2.50;;
68989;SDS011;56046;47.270;11.368;2022-10-17T16:17:41;7.87;;;2.50;;
68989;SDS011;56046;47.270;11.368;2022-10-17T16:20:08;5.97;;;2.60;;
68989;SDS011;56046;47.270;11.368;2022-10-17T16:22:34;6.63;;;2.20;;
68989;SDS011;56046;47.270;11.368;2022-10-17T16:25:05;5.63;;;2.90;;
68989;SDS011;56046;47.270;11.368;2022-10-17T16:27:34;9.90;;;2.60;;
68989;SDS011;56046;47.270;11.368;2022-10-17T16:30:02;5.53;;;2.27;;
68989;SDS011;56046;47.270;11.368;2022-10-17T16:32:31;8.85;;;2.85;;
68989;SDS011;56046;47.270;11.368;2022-10-17T16:34:57;7.78;;;2.60;;
68989;SDS011;56046;47.270;11.368;2022-10-17T16:37:26;7.28;;;2.50;;
68989;SDS011;56046;47.270;11.368;2022-10-17T16:39:51;6.67;;;2.70;;
68989;SDS011;56046;47.270;11.368;2022-10-17T16:42:18;6.97;;;3.00;;
68989;SDS011;56046;47.270;11.368;2022-10-17T16:44:44;6.93;;;2.88;;
68989;SDS011;56046;47.270;11.368;2022-10-17T16:47:11;8.57;;;3.20;;
68989;SDS011;56046;47.270;11.368;2022-10-17T16:49:37;6.47;;;3.17;;
68989;SDS011;56046;47.270;11.368;2022-10-17T16:52:02;5.80;;;3.00;;
68989;SDS011;56046;47.270;11.368;2022-10-17T16:54:28;6.95;;;3.08;;
68989;SDS011;56046;47.270;11.368;2022-10-17T16:56:55;7.43;;;3.05;;
68989;SDS011;56046;47.270;11.368;2022-10-17T16:59:23;8.60;;;2.80;;
68989;SDS011;56046;47.270;11.368;2022-10-17T17:01:48;8.97;;;3.40;;